sensor_id;sensor_type;location;lat;lon;timestamp;temperature;humidity
69418;DHT22;56610;48.872;2.400;2023-04-19T00:00:32;15.30;99.90
69418;DHT22;56610;48.872;2.400;2023-04-19T00:02:59;15.30;99.90
69418;DHT22;56610;48.872;2.400;2023-04-19T00:05:25;15.30;99.90
69418;DHT22;56610;48.872;2.400;2023-04-19T00:07:50;15.40;99.90
69418;DHT22;56610;48.872;2.400;2023-04-19T00:10:16;15.40;99.90
69418;DHT22;56610;48.872;2.400;2023-04-19T00:12:41;15.40;99.90
69418;DHT22;56610;48.872;2.400;2023-04-19T00:15:07;15.20;99.90
69418;DHT22;56610;48.872;2.400;2023-04-19T00:17:34;15.10;99.90
69418;DHT22;56610;48.872;2.400;2023-04-19T00:20:00;15.00;99.90
69418;DHT22;56610;48.872;2.400;2023-04-19T00:22:25;15.00;99.90
69418;DHT22;56610;48.872;2.400;2023-04-19T00:24:52;15.00;99.90
69418;DHT22;56610;48.872;2.400;2023-04-19T00:27:17;15.10;99.90
69418;DHT22;56610;48.872;2.400;2023-04-19T00:29:43;15.00;99.90
69418;DHT22;56610;48.872;2.400;2023-04-19T00:32:09;15.00;99.90
69418;DHT22;56610;48.872;2.400;2023-04-19T00:34:35;15.00;99.90
69418;DHT22;56610;48.872;2.400;2023-04-19T00:37:01;15.00;99.90
69418;DHT22;56610;48.872;2.400;2023-04-19T00:39:29;15.10;99.90
69418;DHT22;56610;48.872;2.400;2023-04-19T00:41:54;15.00;99.90
69418;DHT22;56610;48.872;2.400;2023-04-19T00:44:41;14.90;99.90
69418;DHT22;56610;48.872;2.400;2023-04-19T00:47:07;14.80;99.90
69418;DHT22;56610;48.872;2.400;2023-04-19T00:49:36;14.60;99.90
69418;DHT22;56610;48.872;2.400;2023-04-19T00:52:02;14.60;99.90
69418;DHT22;56610;48.872;2.400;2023-04-19T00:54:27;14.60;99.90
69418;DHT22;56610;48.872;2.400;2023-04-19T00:56:54;14.60;99.90
69418;DHT22;56610;48.872;2.400;2023-04-19T00:59:21;14.70;99.90
69418;DHT22;56610;48.872;2.400;2023-04-19T01:01:48;14.80;99.90
69418;DHT22;56610;48.872;2.400;2023-04-19T01:04:14;14.80;99.90
69418;DHT22;56610;48.872;2.400;2023-04-19T01:06:43;14.80;99.90
69418;DHT22;56610;48.872;2.400;2023-04-19T01:09:08;14.70;99.90
69418;DHT22;56610;48.872;2.400;2023-04-19T01:11:34;14.70;99.90
69418;DHT22;56610;48.872;2.400;2023-04-19T01:14:00;14.80;99.90
69418;DHT22;56610;48.872;2.400;2023-04-19T01:16:26;14.90;99.90
69418;DHT22;56610;48.872;2.400;2023-04-19T01:18:51;14.90;99.90
69418;DHT22;56610;48.872;2.400;2023-04-19T01:21:17;15.00;99.90
69418;DHT22;56610;48.872;2.400;2023-04-19T01:23:43;14.90;99.90
69418;DHT22;56610;48.872;2.400;2023-04-19T01:26:09;14.70;99.90
69418;DHT22;56610;48.872;2.400;2023-04-19T01:28:34;14.70;99.90
69418;DHT22;56610;48.872;2.400;2023-04-19T01:31:00;14.70;99.90
69418;DHT22;56610;48.872;2.400;2023-04-19T01:33:26;14.90;99.90
69418;DHT22;56610;48.872;2.400;2023-04-19T01:35:51;15.00;99.90
69418;DHT22;56610;48.872;2.400;2023-04-19T01:38:17;14.90;99.90
69418;DHT22;56610;48.872;2.400;2023-04-19T01:40:43;14.90;99.90
69418;DHT22;56610;48.872;2.400;2023-04-19T01:43:11;14.80;99.90
69418;DHT22;56610;48.872;2.400;2023-04-19T01:45:37;14.60;99.90
69418;DHT22;56610;48.872;2.400;2023-04-19T01:48:03;14.60;99.90
69418;DHT22;56610;48.872;2.400;2023-04-19T01:50:31;14.60;99.90
69418;DHT22;56610;48.872;2.400;2023-04-19T01:52:57;14.50;99.90
69418;DHT22;56610;48.872;2.400;2023-04-19T01:55:23;14.50;99.90
69418;DHT22;56610;48.872;2.400;2023-04-19T01:57:48;14.60;99.90
69418;DHT22;56610;48.872;2.400;2023-04-19T02:00:14;14.40;99.90
69418;DHT22;56610;48.872;2.400;2023-04-19T02:02:42;14.40;99.90
69418;DHT22;56610;48.872;2.400;2023-04-19T02:05:08;14.50;99.90
69418;DHT22;56610;48.872;2.400;2023-04-19T02:07:33;14.30;99.90
69418;DHT22;56610;48.872;2.400;2023-04-19T02:09:59;14.40;99.90
69418;DHT22;56610;48.872;2.400;2023-04-19T02:12:28;14.30;99.90
69418;DHT22;56610;48.872;2.400;2023-04-19T02:14:55;14.30;99.90
69418;DHT22;56610;48.872;2.400;2023-04-19T02:17:25;14.40;99.90
69418;DHT22;56610;48.872;2.400;2023-04-19T02:19:51;14.40;99.90
69418;DHT22;56610;48.872;2.400;2023-04-19T02:22:17;14.40;99.90
69418;DHT22;56610;48.872;2.400;2023-04-19T02:24:43;14.40;99.90
69418;DHT22;56610;48.872;2.400;2023-04-19T02:27:09;14.30;99.90
69418;DHT22;56610;48.872;2.400;2023-04-19T02:29:34;14.30;99.90
69418;DHT22;56610;48.872;2.400;2023-04-19T02:32:00;14.30;99.90
69418;DHT22;56610;48.872;2.400;2023-04-19T02:34:28;14.50;99.90
69418;DHT22;56610;48.872;2.400;2023-04-19T02:36:53;14.60;99.90
69418;DHT22;56610;48.872;2.400;2023-04-19T02:39:19;14.50;99.90
69418;DHT22;56610;48.872;2.400;2023-04-19T02:41:44;14.50;99.90
69418;DHT22;56610;48.872;2.400;2023-04-19T02:44:10;14.70;99.90
69418;DHT22;56610;48.872;2.400;2023-04-19T02:46:36;14.60;99.90
69418;DHT22;56610;48.872;2.400;2023-04-19T02:49:02;14.50;99.90
69418;DHT22;56610;48.872;2.400;2023-04-19T02:51:28;14.50;99.90
69418;DHT22;56610;48.872;2.400;2023-04-19T02:53:53;14.50;99.90
69418;DHT22;56610;48.872;2.400;2023-04-19T02:56:19;14.50;99.90
69418;DHT22;56610;48.872;2.400;2023-04-19T02:58:45;14.50;99.90
69418;DHT22;56610;48.872;2.400;2023-04-19T03:01:10;14.60;99.90
69418;DHT22;56610;48.872;2.400;2023-04-19T03:03:36;14.60;99.90
69418;DHT22;56610;48.872;2.400;2023-04-19T03:06:02;14.80;99.90
69418;DHT22;56610;48.872;2.400;2023-04-19T03:08:28;14.80;99.90
69418;DHT22;56610;48.872;2.400;2023-04-19T03:10:53;14.80;99.90
69418;DHT22;56610;48.872;2.400;2023-04-19T03:13:39;14.90;99.90
69418;DHT22;56610;48.872;2.400;2023-04-19T03:16:06;14.70;99.90
69418;DHT22;56610;48.872;2.400;2023-04-19T03:24:57;14.30;99.90
69418;DHT22;56610;48.872;2.400;2023-04-19T03:27:22;14.30;99.90
69418;DHT22;56610;48.872;2.400;2023-04-19T03:29:48;14.40;99.90
69418;DHT22;56610;48.872;2.400;2023-04-19T03:32:13;14.30;99.90
69418;DHT22;56610;48.872;2.400;2023-04-19T03:34:39;14.40;99.90
69418;DHT22;56610;48.872;2.400;2023-04-19T03:37:05;14.20;99.90
69418;DHT22;56610;48.872;2.400;2023-04-19T03:39:31;14.20;99.90
69418;DHT22;56610;48.872;2.400;2023-04-19T03:41:56;14.00;99.90
69418;DHT22;56610;48.872;2.400;2023-04-19T03:44:22;13.90;99.90
69418;DHT22;56610;48.872;2.400;2023-04-19T03:46:47;14.00;99.90
69418;DHT22;56610;48.872;2.400;2023-04-19T03:49:13;13.80;99.90
69418;DHT22;56610;48.872;2.400;2023-04-19T03:51:38;13.70;99.90
69418;DHT22;56610;48.872;2.400;2023-04-19T03:54:04;13.60;99.90
69418;DHT22;56610;48.872;2.400;2023-04-19T03:56:29;13.70;99.90
69418;DHT22;56610;48.872;2.400;2023-04-19T03:58:55;13.50;99.90
69418;DHT22;56610;48.872;2.400;2023-04-19T04:01:21;13.60;99.90
69418;DHT22;56610;48.872;2.400;2023-04-19T04:03:48;13.70;99.90
69418;DHT22;56610;48.872;2.400;2023-04-19T04:06:14;13.80;99.90
69418;DHT22;56610;48.872;2.400;2023-04-19T04:08:39;13.80;99.90
69418;DHT22;56610;48.872;2.400;2023-04-19T04:11:05;13.70;99.90
69418;DHT22;56610;48.872;2.400;2023-04-19T04:13:31;13.80;99.90
69418;DHT22;56610;48.872;2.400;2023-04-19T04:15:56;13.80;99.90
69418;DHT22;56610;48.872;2.400;2023-04-19T04:18:22;13.80;99.90
69418;DHT22;56610;48.872;2.400;2023-04-19T04:20:47;13.80;99.90
69418;DHT22;56610;48.872;2.400;2023-04-19T04:23:13;13.90;99.90
69418;DHT22;56610;48.872;2.400;2023-04-19T04:25:39;14.00;99.90
69418;DHT22;56610;48.872;2.400;2023-04-19T04:28:05;14.00;99.90
69418;DHT22;56610;48.872;2.400;2023-04-19T04:30:32;14.00;99.90
69418;DHT22;56610;48.872;2.400;2023-04-19T04:32:58;14.30;99.90
69418;DHT22;56610;48.872;2.400;2023-04-19T04:35:24;14.40;99.90
69418;DHT22;56610;48.872;2.400;2023-04-19T04:37:50;14.30;99.90
69418;DHT22;56610;48.872;2.400;2023-04-19T04:40:18;14.40;99.90
69418;DHT22;56610;48.872;2.400;2023-04-19T04:42:44;14.40;99.90
69418;DHT22;56610;48.872;2.400;2023-04-19T04:45:10;14.20;99.90
69418;DHT22;56610;48.872;2.400;2023-04-19T04:47:37;14.30;99.90
69418;DHT22;56610;48.872;2.400;2023-04-19T04:50:03;14.30;99.90
69418;DHT22;56610;48.872;2.400;2023-04-19T04:52:29;14.30;99.90
69418;DHT22;56610;48.872;2.400;2023-04-19T04:58:01;14.30;99.90
69418;DHT22;56610;48.872;2.400;2023-04-19T05:03:32;14.10;99.90
69418;DHT22;56610;48.872;2.400;2023-04-19T05:05:58;14.10;99.90
69418;DHT22;56610;48.872;2.400;2023-04-19T05:08:26;14.10;99.90
69418;DHT22;56610;48.872;2.400;2023-04-19T05:10:52;13.90;99.90
69418;DHT22;56610;48.872;2.400;2023-04-19T05:13:18;14.00;99.90
69418;DHT22;56610;48.872;2.400;2023-04-19T05:15:43;14.00;99.90
69418;DHT22;56610;48.872;2.400;2023-04-19T05:18:09;14.00;99.90
69418;DHT22;56610;48.872;2.400;2023-04-19T05:20:34;14.10;99.90
69418;DHT22;56610;48.872;2.400;2023-04-19T05:23:00;14.20;99.90
69418;DHT22;56610;48.872;2.400;2023-04-19T05:25:28;14.30;99.90
69418;DHT22;56610;48.872;2.400;2023-04-19T05:27:53;14.20;99.90
69418;DHT22;56610;48.872;2.400;2023-04-19T05:30:19;14.20;99.90
69418;DHT22;56610;48.872;2.400;2023-04-19T05:32:44;14.10;99.90
69418;DHT22;56610;48.872;2.400;2023-04-19T05:35:10;14.00;99.90
69418;DHT22;56610;48.872;2.400;2023-04-19T05:37:37;14.00;99.90
69418;DHT22;56610;48.872;2.400;2023-04-19T05:40:04;14.10;99.90
69418;DHT22;56610;48.872;2.400;2023-04-19T05:42:30;14.00;99.90
69418;DHT22;56610;48.872;2.400;2023-04-19T05:44:55;14.00;99.90
69418;DHT22;56610;48.872;2.400;2023-04-19T05:47:21;14.10;99.90
69418;DHT22;56610;48.872;2.400;2023-04-19T05:49:47;14.20;99.90
69418;DHT22;56610;48.872;2.400;2023-04-19T05:52:12;14.00;99.90
69418;DHT22;56610;48.872;2.400;2023-04-19T05:54:38;13.90;99.90
69418;DHT22;56610;48.872;2.400;2023-04-19T05:57:03;13.80;99.90
69418;DHT22;56610;48.872;2.400;2023-04-19T05:59:29;13.70;99.90
69418;DHT22;56610;48.872;2.400;2023-04-19T06:01:55;13.80;99.90
69418;DHT22;56610;48.872;2.400;2023-04-19T06:04:21;13.80;99.90
69418;DHT22;56610;48.872;2.400;2023-04-19T06:06:47;13.90;99.90
69418;DHT22;56610;48.872;2.400;2023-04-19T06:09:12;14.20;99.90
69418;DHT22;56610;48.872;2.400;2023-04-19T06:11:39;14.10;99.90
69418;DHT22;56610;48.872;2.400;2023-04-19T06:14:05;13.90;99.90
69418;DHT22;56610;48.872;2.400;2023-04-19T06:16:31;13.80;99.90
69418;DHT22;56610;48.872;2.400;2023-04-19T06:18:56;13.80;99.90
69418;DHT22;56610;48.872;2.400;2023-04-19T06:21:22;13.80;99.90
69418;DHT22;56610;48.872;2.400;2023-04-19T06:23:47;13.70;99.90
69418;DHT22;56610;48.872;2.400;2023-04-19T06:26:13;13.70;99.90
69418;DHT22;56610;48.872;2.400;2023-04-19T06:28:39;13.70;99.90
69418;DHT22;56610;48.872;2.400;2023-04-19T06:31:04;13.90;99.90
69418;DHT22;56610;48.872;2.400;2023-04-19T06:33:30;14.00;99.90
69418;DHT22;56610;48.872;2.400;2023-04-19T06:35:56;14.20;99.90
69418;DHT22;56610;48.872;2.400;2023-04-19T06:38:21;14.10;99.90
69418;DHT22;56610;48.872;2.400;2023-04-19T06:40:47;14.20;99.90
69418;DHT22;56610;48.872;2.400;2023-04-19T06:43:12;14.20;99.90
69418;DHT22;56610;48.872;2.400;2023-04-19T06:45:38;14.10;99.90
69418;DHT22;56610;48.872;2.400;2023-04-19T06:48:04;14.30;99.90
69418;DHT22;56610;48.872;2.400;2023-04-19T06:50:29;14.50;99.90
69418;DHT22;56610;48.872;2.400;2023-04-19T06:52:55;14.60;99.90
69418;DHT22;56610;48.872;2.400;2023-04-19T06:55:20;14.70;99.90
69418;DHT22;56610;48.872;2.400;2023-04-19T06:57:46;14.70;99.90
69418;DHT22;56610;48.872;2.400;2023-04-19T07:00:12;14.60;99.90
69418;DHT22;56610;48.872;2.400;2023-04-19T07:02:38;14.60;99.90
69418;DHT22;56610;48.872;2.400;2023-04-19T07:05:04;14.50;99.90
69418;DHT22;56610;48.872;2.400;2023-04-19T07:07:30;14.50;99.90
69418;DHT22;56610;48.872;2.400;2023-04-19T07:09:55;14.70;99.90
69418;DHT22;56610;48.872;2.400;2023-04-19T07:12:21;14.90;99.90
69418;DHT22;56610;48.872;2.400;2023-04-19T07:14:47;14.80;99.90
69418;DHT22;56610;48.872;2.400;2023-04-19T07:17:12;14.70;99.90
69418;DHT22;56610;48.872;2.400;2023-04-19T07:19:38;14.80;99.90
69418;DHT22;56610;48.872;2.400;2023-04-19T07:22:04;14.70;99.90
69418;DHT22;56610;48.872;2.400;2023-04-19T07:24:30;14.80;99.90
69418;DHT22;56610;48.872;2.400;2023-04-19T07:26:56;14.80;99.90
69418;DHT22;56610;48.872;2.400;2023-04-19T07:29:22;14.80;99.90
69418;DHT22;56610;48.872;2.400;2023-04-19T07:31:47;14.90;99.90
69418;DHT22;56610;48.872;2.400;2023-04-19T07:34:13;15.00;99.90
69418;DHT22;56610;48.872;2.400;2023-04-19T07:36:38;15.10;99.90
69418;DHT22;56610;48.872;2.400;2023-04-19T07:39:04;15.10;99.90
69418;DHT22;56610;48.872;2.400;2023-04-19T07:41:31;15.10;99.90
69418;DHT22;56610;48.872;2.400;2023-04-19T07:43:56;15.00;99.90
69418;DHT22;56610;48.872;2.400;2023-04-19T07:46:22;15.20;99.90
69418;DHT22;56610;48.872;2.400;2023-04-19T07:48:48;15.30;99.90
69418;DHT22;56610;48.872;2.400;2023-04-19T07:51:15;15.10;99.90
69418;DHT22;56610;48.872;2.400;2023-04-19T07:53:41;15.20;99.90
69418;DHT22;56610;48.872;2.400;2023-04-19T07:56:09;15.10;99.90
69418;DHT22;56610;48.872;2.400;2023-04-19T07:58:36;15.20;99.90
69418;DHT22;56610;48.872;2.400;2023-04-19T08:01:02;15.30;99.90
69418;DHT22;56610;48.872;2.400;2023-04-19T08:03:32;15.30;99.90
69418;DHT22;56610;48.872;2.400;2023-04-19T08:06:00;15.40;99.90
69418;DHT22;56610;48.872;2.400;2023-04-19T08:08:26;15.40;99.90
69418;DHT22;56610;48.872;2.400;2023-04-19T08:10:52;15.50;99.90
69418;DHT22;56610;48.872;2.400;2023-04-19T08:13:19;15.40;99.90
69418;DHT22;56610;48.872;2.400;2023-04-19T08:15:45;15.50;99.90
69418;DHT22;56610;48.872;2.400;2023-04-19T08:18:11;15.60;99.90
69418;DHT22;56610;48.872;2.400;2023-04-19T08:20:36;15.70;99.90
69418;DHT22;56610;48.872;2.400;2023-04-19T08:23:02;15.70;99.90
69418;DHT22;56610;48.872;2.400;2023-04-19T08:25:30;15.80;99.90
69418;DHT22;56610;48.872;2.400;2023-04-19T08:27:56;15.70;99.90
69418;DHT22;56610;48.872;2.400;2023-04-19T08:30:22;15.70;99.90
69418;DHT22;56610;48.872;2.400;2023-04-19T08:32:48;15.90;99.90
69418;DHT22;56610;48.872;2.400;2023-04-19T08:35:15;16.00;99.90
69418;DHT22;56610;48.872;2.400;2023-04-19T08:37:41;16.00;99.90
69418;DHT22;56610;48.872;2.400;2023-04-19T08:40:07;15.90;99.90
69418;DHT22;56610;48.872;2.400;2023-04-19T08:42:33;16.00;99.90
69418;DHT22;56610;48.872;2.400;2023-04-19T08:45:00;16.00;99.90
69418;DHT22;56610;48.872;2.400;2023-04-19T08:47:27;16.10;99.90
69418;DHT22;56610;48.872;2.400;2023-04-19T08:49:54;16.20;99.90
69418;DHT22;56610;48.872;2.400;2023-04-19T08:52:21;16.30;99.90
69418;DHT22;56610;48.872;2.400;2023-04-19T08:54:47;16.30;99.90
69418;DHT22;56610;48.872;2.400;2023-04-19T08:57:13;16.30;99.90
69418;DHT22;56610;48.872;2.400;2023-04-19T08:59:39;16.30;99.90
69418;DHT22;56610;48.872;2.400;2023-04-19T09:02:05;16.40;99.90
69418;DHT22;56610;48.872;2.400;2023-04-19T09:04:31;16.50;99.90
69418;DHT22;56610;48.872;2.400;2023-04-19T09:06:56;16.40;99.90
69418;DHT22;56610;48.872;2.400;2023-04-19T09:09:42;16.30;99.90
69418;DHT22;56610;48.872;2.400;2023-04-19T09:12:17;16.40;99.90
69418;DHT22;56610;48.872;2.400;2023-04-19T09:14:46;16.30;99.90
69418;DHT22;56610;48.872;2.400;2023-04-19T09:17:12;16.40;99.90
69418;DHT22;56610;48.872;2.400;2023-04-19T09:19:47;16.40;99.90
69418;DHT22;56610;48.872;2.400;2023-04-19T09:22:13;16.50;99.90
69418;DHT22;56610;48.872;2.400;2023-04-19T09:24:39;16.50;99.90
69418;DHT22;56610;48.872;2.400;2023-04-19T09:27:05;16.60;99.90
69418;DHT22;56610;48.872;2.400;2023-04-19T09:29:30;16.70;99.90
69418;DHT22;56610;48.872;2.400;2023-04-19T09:31:57;16.60;99.90
69418;DHT22;56610;48.872;2.400;2023-04-19T09:34:23;16.60;99.90
69418;DHT22;56610;48.872;2.400;2023-04-19T09:36:49;16.70;99.90
69418;DHT22;56610;48.872;2.400;2023-04-19T09:39:32;16.60;99.90
69418;DHT22;56610;48.872;2.400;2023-04-19T09:42:00;16.60;99.90
69418;DHT22;56610;48.872;2.400;2023-04-19T09:44:26;16.60;99.90
69418;DHT22;56610;48.872;2.400;2023-04-19T09:46:53;16.60;99.90
69418;DHT22;56610;48.872;2.400;2023-04-19T09:49:21;16.60;99.90
69418;DHT22;56610;48.872;2.400;2023-04-19T09:51:53;16.70;99.90
69418;DHT22;56610;48.872;2.400;2023-04-19T09:54:24;16.80;99.90
69418;DHT22;56610;48.872;2.400;2023-04-19T09:56:51;16.80;99.90
69418;DHT22;56610;48.872;2.400;2023-04-19T09:59:17;17.00;99.90
69418;DHT22;56610;48.872;2.400;2023-04-19T10:01:45;16.90;99.90
69418;DHT22;56610;48.872;2.400;2023-04-19T10:04:13;17.00;99.90
69418;DHT22;56610;48.872;2.400;2023-04-19T10:06:46;17.00;99.90
69418;DHT22;56610;48.872;2.400;2023-04-19T10:09:13;17.10;99.90
69418;DHT22;56610;48.872;2.400;2023-04-19T10:11:38;17.10;99.90
69418;DHT22;56610;48.872;2.400;2023-04-19T10:14:08;17.10;99.90
69418;DHT22;56610;48.872;2.400;2023-04-19T10:16:36;17.10;99.90
69418;DHT22;56610;48.872;2.400;2023-04-19T10:19:07;17.30;99.90
69418;DHT22;56610;48.872;2.400;2023-04-19T10:21:33;17.30;99.90
69418;DHT22;56610;48.872;2.400;2023-04-19T10:24:00;17.40;99.90
69418;DHT22;56610;48.872;2.400;2023-04-19T10:26:26;17.50;99.90
69418;DHT22;56610;48.872;2.400;2023-04-19T10:28:56;17.50;99.90
69418;DHT22;56610;48.872;2.400;2023-04-19T10:31:22;17.60;99.90
69418;DHT22;56610;48.872;2.400;2023-04-19T10:33:49;17.60;99.90
69418;DHT22;56610;48.872;2.400;2023-04-19T10:36:19;17.60;99.90
69418;DHT22;56610;48.872;2.400;2023-04-19T10:38:47;17.70;99.90
69418;DHT22;56610;48.872;2.400;2023-04-19T10:41:14;17.60;99.90
69418;DHT22;56610;48.872;2.400;2023-04-19T10:43:47;17.60;99.90
69418;DHT22;56610;48.872;2.400;2023-04-19T10:49:02;17.70;99.90
69418;DHT22;56610;48.872;2.400;2023-04-19T10:51:35;17.80;99.90
69418;DHT22;56610;48.872;2.400;2023-04-19T10:54:05;18.00;99.90
69418;DHT22;56610;48.872;2.400;2023-04-19T11:01:32;18.60;99.90
69418;DHT22;56610;48.872;2.400;2023-04-19T11:03:59;18.80;99.90
69418;DHT22;56610;48.872;2.400;2023-04-19T11:06:24;19.00;99.90
69418;DHT22;56610;48.872;2.400;2023-04-19T11:08:53;19.30;99.90
69418;DHT22;56610;48.872;2.400;2023-04-19T11:11:21;19.60;99.90
69418;DHT22;56610;48.872;2.400;2023-04-19T11:13:47;20.00;99.90
69418;DHT22;56610;48.872;2.400;2023-04-19T11:16:13;20.30;99.90
69418;DHT22;56610;48.872;2.400;2023-04-19T11:18:39;20.60;99.90
69418;DHT22;56610;48.872;2.400;2023-04-19T11:21:04;20.80;99.90
69418;DHT22;56610;48.872;2.400;2023-04-19T11:23:30;20.90;99.90
69418;DHT22;56610;48.872;2.400;2023-04-19T11:25:55;21.00;99.90
69418;DHT22;56610;48.872;2.400;2023-04-19T11:28:21;21.10;99.90
69418;DHT22;56610;48.872;2.400;2023-04-19T11:30:48;21.30;99.90
69418;DHT22;56610;48.872;2.400;2023-04-19T11:33:14;21.30;99.90
69418;DHT22;56610;48.872;2.400;2023-04-19T11:35:40;21.30;99.90
69418;DHT22;56610;48.872;2.400;2023-04-19T11:38:07;21.60;99.90
69418;DHT22;56610;48.872;2.400;2023-04-19T11:40:33;21.50;99.90
69418;DHT22;56610;48.872;2.400;2023-04-19T11:43:01;21.60;99.90
69418;DHT22;56610;48.872;2.400;2023-04-19T11:45:36;21.70;99.90
69418;DHT22;56610;48.872;2.400;2023-04-19T11:48:06;21.60;99.60
69418;DHT22;56610;48.872;2.400;2023-04-19T11:50:43;21.50;99.20
69418;DHT22;56610;48.872;2.400;2023-04-19T11:53:17;21.60;99.30
69418;DHT22;56610;48.872;2.400;2023-04-19T11:55:45;21.80;99.10
69418;DHT22;56610;48.872;2.400;2023-04-19T11:58:28;22.00;98.60
69418;DHT22;56610;48.872;2.400;2023-04-19T12:00:56;22.10;98.00
69418;DHT22;56610;48.872;2.400;2023-04-19T12:03:25;22.30;98.60
69418;DHT22;56610;48.872;2.400;2023-04-19T12:05:56;22.50;98.80
69418;DHT22;56610;48.872;2.400;2023-04-19T12:08:30;22.50;98.40
69418;DHT22;56610;48.872;2.400;2023-04-19T12:10:57;22.80;98.30
69418;DHT22;56610;48.872;2.400;2023-04-19T12:13:26;22.90;97.60
69418;DHT22;56610;48.872;2.400;2023-04-19T12:15:52;22.90;98.10
69418;DHT22;56610;48.872;2.400;2023-04-19T12:18:17;23.00;98.10
69418;DHT22;56610;48.872;2.400;2023-04-19T12:20:45;23.20;98.10
69418;DHT22;56610;48.872;2.400;2023-04-19T12:23:11;23.40;97.70
69418;DHT22;56610;48.872;2.400;2023-04-19T12:26:03;23.40;97.60
69418;DHT22;56610;48.872;2.400;2023-04-19T12:28:30;23.60;97.40
69418;DHT22;56610;48.872;2.400;2023-04-19T12:30:55;23.80;96.10
69418;DHT22;56610;48.872;2.400;2023-04-19T12:33:21;23.90;96.20
69418;DHT22;56610;48.872;2.400;2023-04-19T12:35:46;24.10;96.10
69418;DHT22;56610;48.872;2.400;2023-04-19T12:38:12;24.40;95.30
69418;DHT22;56610;48.872;2.400;2023-04-19T12:40:37;24.70;95.70
69418;DHT22;56610;48.872;2.400;2023-04-19T12:43:05;24.90;94.50
69418;DHT22;56610;48.872;2.400;2023-04-19T12:45:31;25.00;94.40
69418;DHT22;56610;48.872;2.400;2023-04-19T12:47:56;25.20;94.60
69418;DHT22;56610;48.872;2.400;2023-04-19T12:50:22;25.20;93.20
69418;DHT22;56610;48.872;2.400;2023-04-19T12:52:48;25.50;93.80
69418;DHT22;56610;48.872;2.400;2023-04-19T12:55:13;25.60;93.40
69418;DHT22;56610;48.872;2.400;2023-04-19T12:57:39;25.80;93.30
69418;DHT22;56610;48.872;2.400;2023-04-19T13:00:06;26.00;93.30
69418;DHT22;56610;48.872;2.400;2023-04-19T13:02:33;26.30;92.60
69418;DHT22;56610;48.872;2.400;2023-04-19T13:04:59;26.60;92.80
69418;DHT22;56610;48.872;2.400;2023-04-19T13:07:24;26.60;92.30
69418;DHT22;56610;48.872;2.400;2023-04-19T13:09:50;26.30;91.60
69418;DHT22;56610;48.872;2.400;2023-04-19T13:12:16;26.10;91.90
69418;DHT22;56610;48.872;2.400;2023-04-19T13:14:41;26.20;92.10
69418;DHT22;56610;48.872;2.400;2023-04-19T13:17:10;26.00;92.20
69418;DHT22;56610;48.872;2.400;2023-04-19T13:19:36;25.90;92.00
69418;DHT22;56610;48.872;2.400;2023-04-19T13:22:01;25.80;92.00
69418;DHT22;56610;48.872;2.400;2023-04-19T13:24:27;25.80;91.10
69418;DHT22;56610;48.872;2.400;2023-04-19T13:26:52;25.70;91.80
69418;DHT22;56610;48.872;2.400;2023-04-19T13:29:18;25.70;91.00
69418;DHT22;56610;48.872;2.400;2023-04-19T13:31:44;25.80;90.80
69418;DHT22;56610;48.872;2.400;2023-04-19T13:34:11;26.10;90.80
69418;DHT22;56610;48.872;2.400;2023-04-19T13:36:36;26.30;91.00
69418;DHT22;56610;48.872;2.400;2023-04-19T13:39:02;26.10;90.50
69418;DHT22;56610;48.872;2.400;2023-04-19T13:41:28;26.20;90.80
69418;DHT22;56610;48.872;2.400;2023-04-19T13:43:54;25.90;90.80
69418;DHT22;56610;48.872;2.400;2023-04-19T13:46:19;25.60;91.00
69418;DHT22;56610;48.872;2.400;2023-04-19T13:48:45;25.50;90.60
69418;DHT22;56610;48.872;2.400;2023-04-19T13:51:11;25.30;90.60
69418;DHT22;56610;48.872;2.400;2023-04-19T13:53:37;25.20;91.20
69418;DHT22;56610;48.872;2.400;2023-04-19T13:56:24;25.30;90.90
69418;DHT22;56610;48.872;2.400;2023-04-19T13:58:50;25.70;90.70
69418;DHT22;56610;48.872;2.400;2023-04-19T14:01:16;25.90;90.40
69418;DHT22;56610;48.872;2.400;2023-04-19T14:03:41;25.60;90.30
69418;DHT22;56610;48.872;2.400;2023-04-19T14:06:07;25.50;90.70
69418;DHT22;56610;48.872;2.400;2023-04-19T14:08:32;25.50;91.20
69418;DHT22;56610;48.872;2.400;2023-04-19T14:10:58;25.50;90.90
69418;DHT22;56610;48.872;2.400;2023-04-19T14:13:24;25.70;90.60
69418;DHT22;56610;48.872;2.400;2023-04-19T14:15:49;25.80;90.50
69418;DHT22;56610;48.872;2.400;2023-04-19T14:18:16;25.80;90.10
69418;DHT22;56610;48.872;2.400;2023-04-19T14:20:41;25.80;90.30
69418;DHT22;56610;48.872;2.400;2023-04-19T14:23:07;25.40;90.20
69418;DHT22;56610;48.872;2.400;2023-04-19T14:25:33;25.10;90.90
69418;DHT22;56610;48.872;2.400;2023-04-19T14:28:01;25.20;90.80
69418;DHT22;56610;48.872;2.400;2023-04-19T14:30:26;25.20;90.70
69418;DHT22;56610;48.872;2.400;2023-04-19T14:32:52;25.40;90.70
69418;DHT22;56610;48.872;2.400;2023-04-19T14:35:17;25.40;90.90
69418;DHT22;56610;48.872;2.400;2023-04-19T14:37:44;25.40;90.70
69418;DHT22;56610;48.872;2.400;2023-04-19T14:40:10;25.60;90.40
69418;DHT22;56610;48.872;2.400;2023-04-19T14:42:35;25.60;90.20
69418;DHT22;56610;48.872;2.400;2023-04-19T14:45:01;25.80;90.20
69418;DHT22;56610;48.872;2.400;2023-04-19T14:47:26;25.70;89.90
69418;DHT22;56610;48.872;2.400;2023-04-19T14:49:52;25.80;89.60
69418;DHT22;56610;48.872;2.400;2023-04-19T14:52:18;25.50;89.40
69418;DHT22;56610;48.872;2.400;2023-04-19T14:54:43;25.40;87.90
69418;DHT22;56610;48.872;2.400;2023-04-19T14:57:09;25.40;89.40
69418;DHT22;56610;48.872;2.400;2023-04-19T14:59:36;25.50;88.80
69418;DHT22;56610;48.872;2.400;2023-04-19T15:02:01;25.60;89.80
69418;DHT22;56610;48.872;2.400;2023-04-19T15:04:27;25.70;89.60
69418;DHT22;56610;48.872;2.400;2023-04-19T15:06:53;25.90;88.80
69418;DHT22;56610;48.872;2.400;2023-04-19T15:09:18;25.90;87.70
69418;DHT22;56610;48.872;2.400;2023-04-19T15:11:44;25.60;88.20
69418;DHT22;56610;48.872;2.400;2023-04-19T15:14:09;25.10;88.00
69418;DHT22;56610;48.872;2.400;2023-04-19T15:16:35;24.60;88.70
69418;DHT22;56610;48.872;2.400;2023-04-19T15:19:01;24.40;89.80
69418;DHT22;56610;48.872;2.400;2023-04-19T15:21:27;24.50;89.10
69418;DHT22;56610;48.872;2.400;2023-04-19T15:23:53;24.40;90.00
69418;DHT22;56610;48.872;2.400;2023-04-19T15:26:18;24.70;89.80
69418;DHT22;56610;48.872;2.400;2023-04-19T15:28:44;24.80;89.40
69418;DHT22;56610;48.872;2.400;2023-04-19T15:31:09;24.90;89.60
69418;DHT22;56610;48.872;2.400;2023-04-19T15:33:35;25.00;89.00
69418;DHT22;56610;48.872;2.400;2023-04-19T15:36:03;24.90;88.00
69418;DHT22;56610;48.872;2.400;2023-04-19T15:38:30;24.80;88.80
69418;DHT22;56610;48.872;2.400;2023-04-19T15:40:57;24.70;88.50
69418;DHT22;56610;48.872;2.400;2023-04-19T15:43:24;24.50;88.00
69418;DHT22;56610;48.872;2.400;2023-04-19T15:45:50;24.60;88.20